Terminal Aerodrome Forecast
Issued by NWS

Home | Current Version | Previous Version | Text Only | Print | Product List | Glossary On
Versions: 1 2 3 4 5 6 7 8 9 10 11 12 13 14
000
FTUS45 KGJT 292335
TAFVEL
TAF
KVEL 292335Z 3000/3024 08005KT P6SM VCTS SCT110CB BKN200
      TEMPO 3000/3002 VRB15G30KT -TSRA BKN100CB
     FM300300 29005KT P6SM SCT250
     FM301100 VRB03KT P6SM SCT250
     FM301900 29009KT P6SM VCSH SCT100 BKN200=

USA.gov is the U.S. government's official web portal to all federal, state and local government web resources and services.